createdAt,value
2023-04-11T00:01:51.352Z,11.18
2023-04-11T00:04:20.990Z,13.07
2023-04-11T00:06:48.416Z,12.15
2023-04-11T00:09:16.755Z,12.30
2023-04-11T00:11:43.764Z,13.15
2023-04-11T00:14:12.575Z,12.05
2023-04-11T00:16:39.766Z,11.73
2023-04-11T00:19:09.494Z,12.30
2023-04-11T00:21:39.856Z,11.75
2023-04-11T00:24:10.138Z,11.88
2023-04-11T00:26:36.990Z,12.50
2023-04-11T00:29:04.030Z,12.32
2023-04-11T00:31:30.862Z,11.05
2023-04-11T00:33:58.316Z,13.00
2023-04-11T00:36:26.759Z,14.07
2023-04-11T00:38:55.224Z,13.13
2023-04-11T00:41:22.278Z,13.35
2023-04-11T00:43:51.429Z,11.80
2023-04-11T00:46:18.668Z,13.02
2023-04-11T00:48:46.104Z,12.40
2023-04-11T00:51:13.405Z,13.75
2023-04-11T00:53:40.977Z,12.60
2023-04-11T00:56:09.741Z,12.65
2023-04-11T00:58:38.468Z,12.73
2023-04-11T01:01:09.511Z,12.10
2023-04-11T01:03:38.719Z,13.18
2023-04-11T01:06:07.437Z,11.93
2023-04-11T01:08:35.433Z,12.90
2023-04-11T01:11:03.341Z,12.57
2023-04-11T01:13:33.135Z,13.57
2023-04-11T01:16:00.857Z,12.82
2023-04-11T01:18:27.998Z,12.98
2023-04-11T01:20:55.079Z,13.23
2023-04-11T01:23:24.756Z,14.45
2023-04-11T01:25:52.197Z,12.05
2023-04-11T01:28:20.381Z,12.00
2023-04-11T01:30:47.804Z,12.00
2023-04-11T01:33:16.358Z,12.35
2023-04-11T01:35:43.821Z,13.98
2023-04-11T01:38:11.328Z,12.88
2023-04-11T01:40:38.551Z,13.88
2023-04-11T01:43:08.185Z,11.85
2023-04-11T01:45:36.166Z,13.25
2023-04-11T01:48:09.614Z,12.55
2023-04-11T01:50:36.449Z,13.23
2023-04-11T01:53:05.020Z,12.88
2023-04-11T01:55:31.824Z,15.07
2023-04-11T01:57:58.903Z,12.02
2023-04-11T02:00:25.755Z,12.98
2023-04-11T02:02:53.031Z,12.70
2023-04-11T02:05:20.593Z,12.85
2023-04-11T02:07:47.738Z,13.65
2023-04-11T02:10:14.517Z,11.88
2023-04-11T02:12:41.671Z,14.10
2023-04-11T02:15:09.091Z,12.05
2023-04-11T02:17:36.989Z,13.15
2023-04-11T02:20:07.080Z,12.65
2023-04-11T02:22:34.249Z,14.02
2023-04-11T02:25:01.112Z,12.43
2023-04-11T02:27:28.190Z,12.90
2023-04-11T02:29:55.018Z,12.82
2023-04-11T02:32:22.137Z,12.77
2023-04-11T02:34:49.049Z,13.50
2023-04-11T02:37:16.111Z,12.75
2023-04-11T02:39:42.891Z,12.68
2023-04-11T02:42:10.021Z,12.23
2023-04-11T02:44:36.814Z,11.88
2023-04-11T02:47:03.873Z,12.10
2023-04-11T02:49:30.619Z,12.18
2023-04-11T02:51:57.721Z,12.50
2023-04-11T02:54:24.615Z,13.07
2023-04-11T02:56:52.800Z,12.30
2023-04-11T02:59:19.641Z,12.60
2023-04-11T03:01:46.775Z,12.93
2023-04-11T03:04:13.667Z,12.13
2023-04-11T03:06:41.153Z,14.07
2023-04-11T03:09:07.964Z,13.25
2023-04-11T03:11:35.011Z,12.52
2023-04-11T03:14:01.990Z,12.18
2023-04-11T03:16:29.207Z,12.48
2023-04-11T03:18:56.353Z,13.57
2023-04-11T03:21:23.636Z,12.35
2023-04-11T03:23:50.461Z,11.88
2023-04-11T03:26:18.628Z,13.15
2023-04-11T03:28:45.855Z,12.73
2023-04-11T03:31:13.430Z,12.75
2023-04-11T03:33:40.579Z,12.80
2023-04-11T03:36:08.037Z,12.43
2023-04-11T03:38:34.823Z,13.07
2023-04-11T03:41:01.903Z,12.63
2023-04-11T03:43:29.349Z,13.68
2023-04-11T03:45:56.518Z,12.88
2023-04-11T03:48:26.577Z,12.35
2023-04-11T03:50:53.797Z,11.80
2023-04-11T03:53:20.562Z,13.05
2023-04-11T03:55:49.096Z,12.18
2023-04-11T03:58:16.132Z,11.93
2023-04-11T04:00:43.233Z,14.30
2023-04-11T04:03:10.252Z,13.02
2023-04-11T04:05:37.468Z,12.88
2023-04-11T04:08:04.389Z,12.25
2023-04-11T04:10:31.557Z,13.07
2023-04-11T04:12:58.345Z,12.07
2023-04-11T04:15:25.477Z,13.93
2023-04-11T04:17:52.411Z,13.20
2023-04-11T04:20:19.503Z,13.43
2023-04-11T04:22:47.531Z,12.63
2023-04-11T04:25:15.875Z,15.05
2023-04-11T04:27:44.313Z,12.10
2023-04-11T04:30:15.344Z,14.98
2023-04-11T04:32:45.900Z,16.42
2023-04-11T04:35:16.859Z,16.23
2023-04-11T04:37:46.613Z,16.90
2023-04-11T04:40:14.129Z,16.17
2023-04-11T04:42:42.144Z,17.23
2023-04-11T04:45:10.781Z,17.90
2023-04-11T04:47:38.564Z,17.55
2023-04-11T04:50:06.404Z,16.33
2023-04-11T04:52:33.228Z,15.65
2023-04-11T04:55:01.288Z,16.77
2023-04-11T04:57:29.565Z,16.48
2023-04-11T04:59:57.674Z,16.98
2023-04-11T05:02:28.041Z,16.92
2023-04-11T05:04:55.281Z,18.20
2023-04-11T05:07:22.191Z,16.90
2023-04-11T05:09:49.318Z,17.52
2023-04-11T05:12:16.777Z,17.50
2023-04-11T05:14:43.822Z,16.02
2023-04-11T05:17:10.849Z,16.85
2023-04-11T05:19:37.888Z,18.02
2023-04-11T05:22:04.677Z,17.45
2023-04-11T05:24:31.770Z,17.08
2023-04-11T05:26:58.542Z,16.20
2023-04-11T05:29:25.921Z,16.77
2023-04-11T05:31:52.737Z,15.60
2023-04-11T05:34:19.807Z,14.77
2023-04-11T05:36:47.294Z,14.27
2023-04-11T05:39:14.357Z,13.45
2023-04-11T05:41:41.974Z,13.27
2023-04-11T05:44:09.049Z,13.90
2023-04-11T05:46:37.353Z,13.98
2023-04-11T05:49:04.551Z,14.00
2023-04-11T05:51:31.359Z,15.77
2023-04-11T05:53:58.744Z,15.18
2023-04-11T05:56:25.742Z,15.70
2023-04-11T05:58:53.116Z,16.30
2023-04-11T06:01:19.890Z,14.45
2023-04-11T06:03:48.325Z,15.32
2023-04-11T06:06:15.830Z,14.55
2023-04-11T06:08:43.037Z,15.05
2023-04-11T06:11:09.990Z,14.27
2023-04-11T06:13:37.049Z,15.05
2023-04-11T06:16:06.133Z,13.07
2023-04-11T06:18:33.197Z,13.82
2023-04-11T06:21:02.638Z,14.43
2023-04-11T06:23:29.686Z,13.90
2023-04-11T06:25:56.493Z,12.48
2023-04-11T06:28:23.595Z,14.68
2023-04-11T06:30:50.418Z,14.63
2023-04-11T06:33:17.560Z,15.07
2023-04-11T06:35:44.394Z,15.77
2023-04-11T06:38:11.513Z,15.93
2023-04-11T06:40:38.265Z,15.43
2023-04-11T06:43:05.315Z,15.65
2023-04-11T06:45:32.148Z,15.32
2023-04-11T06:47:59.297Z,14.27
2023-04-11T06:50:26.098Z,14.45
2023-04-11T06:52:54.382Z,16.83
2023-04-11T06:55:23.052Z,15.07
2023-04-11T06:57:50.125Z,14.38
2023-04-11T07:00:17.336Z,16.13
2023-04-11T07:02:44.877Z,15.30
2023-04-11T07:05:12.047Z,16.13
2023-04-11T07:07:39.735Z,16.88
2023-04-11T07:10:07.119Z,14.30
2023-04-11T07:12:34.249Z,14.32
2023-04-11T07:15:02.731Z,15.15
2023-04-11T07:17:29.849Z,14.23
2023-04-11T07:19:56.800Z,14.32
2023-04-11T07:22:23.930Z,14.57
2023-04-11T07:24:55.399Z,14.95
2023-04-11T07:27:23.392Z,15.68
2023-04-11T07:29:50.705Z,13.77
2023-04-11T07:32:17.905Z,13.88
2023-04-11T07:34:44.720Z,12.85
2023-04-11T07:37:12.523Z,12.23
2023-04-11T07:39:40.531Z,11.85
2023-04-11T07:42:08.049Z,11.95
2023-04-11T07:44:34.849Z,9.50
2023-04-11T07:47:01.968Z,11.05
2023-04-11T07:49:28.817Z,10.75
2023-04-11T07:51:55.890Z,10.32
2023-04-11T07:54:25.167Z,9.93
2023-04-11T07:56:52.274Z,8.93
2023-04-11T07:59:19.256Z,7.18
2023-04-11T08:01:57.496Z,6.32
2023-04-11T08:04:24.486Z,8.77
2023-04-11T08:06:52.047Z,6.68
2023-04-11T08:09:19.285Z,8.55
2023-04-11T08:11:46.366Z,5.82
2023-04-11T08:14:13.188Z,9.02
2023-04-11T08:16:40.336Z,8.57
2023-04-11T08:19:07.346Z,8.35
2023-04-11T08:21:34.439Z,9.63
2023-04-11T08:24:01.205Z,10.23
2023-04-11T08:26:28.298Z,9.93
2023-04-11T08:28:55.211Z,12.73
2023-04-11T08:31:23.044Z,10.68
2023-04-11T08:33:50.674Z,9.10
2023-04-11T08:36:20.271Z,9.55
2023-04-11T08:38:47.082Z,6.25
2023-04-11T08:41:14.543Z,5.13
2023-04-11T08:43:41.385Z,6.40
2023-04-11T08:46:08.818Z,4.82
2023-04-11T08:48:36.169Z,7.38
2023-04-11T08:51:03.256Z,7.22
2023-04-11T08:53:30.909Z,7.93
2023-04-11T08:55:59.937Z,7.53
2023-04-11T08:58:26.841Z,7.93
2023-04-11T09:00:53.928Z,6.20
2023-04-11T09:03:20.973Z,4.88
2023-04-11T09:05:48.488Z,5.90
2023-04-11T09:08:16.846Z,7.25
2023-04-11T09:10:45.605Z,7.55
2023-04-11T09:13:28.057Z,8.10
2023-04-11T09:16:09.672Z,8.82
2023-04-11T09:18:39.485Z,9.63
2023-04-11T09:21:11.755Z,8.85
2023-04-11T09:23:39.405Z,9.15
2023-04-11T09:26:08.594Z,9.13
2023-04-11T09:28:43.310Z,6.68
2023-04-11T09:31:13.283Z,7.78
2023-04-11T09:33:57.593Z,8.25
2023-04-11T09:36:29.174Z,10.02
2023-04-11T09:38:56.527Z,9.25
2023-04-11T09:41:35.987Z,9.60
2023-04-11T09:44:02.932Z,9.63
2023-04-11T09:46:30.134Z,8.88
2023-04-11T09:49:01.838Z,8.05
2023-04-11T09:51:36.519Z,8.07
2023-04-11T09:54:05.473Z,9.32
2023-04-11T09:56:36.386Z,8.18
2023-04-11T09:59:04.384Z,6.97
2023-04-11T10:01:32.571Z,8.82
2023-04-11T10:04:00.987Z,9.93
2023-04-11T10:06:38.941Z,9.43
2023-04-11T10:09:11.759Z,9.32
2023-04-11T10:11:43.418Z,9.52
2023-04-11T10:14:39.193Z,10.40
2023-04-11T10:17:23.543Z,8.50
2023-04-11T10:19:56.598Z,10.20
2023-04-11T10:22:43.290Z,7.77
2023-04-11T10:25:21.765Z,7.95
2023-04-11T10:27:53.708Z,10.95
2023-04-11T10:30:40.845Z,11.70
2023-04-11T10:33:14.907Z,9.63
2023-04-11T10:38:41.958Z,9.35
2023-04-11T10:41:27.769Z,10.50
2023-04-11T10:44:15.017Z,10.05
2023-04-11T10:47:00.018Z,10.27
2023-04-11T10:49:34.364Z,10.27
2023-04-11T10:52:24.386Z,10.02
2023-04-11T10:54:53.414Z,10.50
2023-04-11T10:57:21.750Z,9.55
2023-04-11T10:59:51.801Z,9.77
2023-04-11T11:02:21.973Z,9.15
2023-04-11T11:04:49.740Z,10.13
2023-04-11T11:07:17.410Z,10.50
2023-04-11T11:09:51.376Z,11.30
2023-04-11T11:12:18.399Z,10.57
2023-04-11T11:14:47.127Z,10.07
2023-04-11T11:17:16.412Z,8.10
2023-04-11T11:19:47.905Z,9.95
2023-04-11T11:22:19.265Z,10.30
2023-04-11T11:24:46.428Z,9.82
2023-04-11T11:27:24.117Z,10.55
2023-04-11T11:29:52.018Z,10.20
2023-04-11T11:32:30.004Z,9.60
2023-04-11T11:34:57.691Z,9.45
2023-04-11T11:37:28.177Z,9.77
2023-04-11T11:39:55.428Z,9.15
2023-04-11T11:42:22.331Z,7.57
2023-04-11T11:44:49.476Z,9.52
2023-04-11T11:47:16.316Z,10.20
2023-04-11T11:49:54.307Z,6.70
2023-04-11T11:52:40.465Z,7.78
2023-04-11T11:58:01.335Z,9.27
2023-04-11T12:00:30.483Z,9.43
2023-04-11T12:02:59.841Z,10.32
2023-04-11T12:05:30.408Z,9.18
2023-04-11T12:07:59.550Z,10.15
2023-04-11T12:11:02.734Z,8.30
2023-04-11T12:13:31.291Z,8.95
2023-04-11T12:16:01.648Z,9.25
2023-04-11T12:18:28.797Z,9.60
2023-04-11T12:20:55.999Z,8.32
2023-04-11T12:23:22.995Z,6.25
2023-04-11T12:25:50.285Z,8.73
2023-04-11T12:28:17.169Z,8.00
2023-04-11T12:30:44.261Z,8.90
2023-04-11T12:33:11.120Z,8.40
2023-04-11T12:35:38.243Z,8.00
2023-04-11T12:38:05.054Z,6.50
2023-04-11T12:40:32.173Z,6.10
2023-04-11T12:42:59.045Z,6.55
2023-04-11T12:45:26.486Z,6.30
2023-04-11T12:47:53.734Z,6.28
2023-04-11T12:50:23.837Z,6.30
2023-04-11T12:52:51.483Z,6.72
2023-04-11T12:55:18.834Z,7.25
2023-04-11T12:57:45.990Z,7.45
2023-04-11T13:00:13.840Z,7.78
2023-04-11T13:02:44.627Z,8.30
2023-04-11T13:05:16.977Z,7.20
2023-04-11T13:07:45.355Z,7.10
2023-04-11T13:10:14.283Z,8.10
2023-04-11T13:12:44.304Z,7.85
2023-04-11T13:15:13.401Z,5.95
2023-04-11T13:17:40.346Z,6.38
2023-04-11T13:20:10.448Z,5.65
2023-04-11T13:22:38.720Z,6.10
2023-04-11T13:25:07.008Z,7.13
2023-04-11T13:27:34.558Z,7.05
2023-04-11T13:30:02.039Z,6.63
2023-04-11T13:32:29.084Z,7.78
2023-04-11T13:34:56.719Z,6.78
2023-04-11T13:37:24.176Z,7.00
2023-04-11T13:39:51.262Z,6.70
2023-04-11T13:42:18.055Z,6.07
2023-04-11T13:44:45.194Z,7.10
2023-04-11T13:47:12.041Z,6.55
2023-04-11T13:49:39.117Z,5.82
2023-04-11T13:52:05.947Z,6.20
2023-04-11T13:54:41.965Z,6.80
2023-04-11T13:57:09.665Z,5.93
2023-04-11T13:59:36.902Z,6.25
2023-04-11T14:02:04.021Z,6.20
2023-04-11T14:04:31.440Z,5.75
2023-04-11T14:06:58.464Z,5.95
2023-04-11T14:09:25.628Z,4.35
2023-04-11T14:11:52.805Z,5.47
2023-04-11T14:14:19.903Z,4.25
2023-04-11T14:16:46.828Z,4.30
2023-04-11T14:19:13.914Z,5.50
2023-04-11T14:21:40.786Z,4.43
2023-04-11T14:24:08.155Z,3.88
2023-04-11T14:26:34.949Z,3.30
2023-04-11T14:29:02.792Z,3.92
2023-04-11T14:31:29.751Z,3.10
2023-04-11T14:33:57.274Z,3.50
2023-04-11T14:36:24.349Z,3.67
2023-04-11T14:38:51.536Z,3.72
2023-04-11T14:41:19.316Z,3.38
2023-04-11T14:43:46.408Z,3.83
2023-04-11T14:46:13.292Z,3.22
2023-04-11T14:48:40.540Z,3.50
2023-04-11T14:51:07.640Z,3.63
2023-04-11T14:53:34.704Z,4.88
2023-04-11T14:56:04.763Z,4.10
2023-04-11T14:58:34.160Z,4.00
2023-04-11T15:01:01.092Z,3.92
2023-04-11T15:03:28.478Z,3.40
2023-04-11T15:05:55.521Z,2.50
2023-04-11T15:08:22.636Z,1.98
2023-04-11T15:10:53.998Z,1.73
2023-04-11T15:13:22.301Z,1.77
2023-04-11T15:15:49.188Z,1.13
2023-04-11T15:18:30.050Z,2.17
2023-04-11T15:20:58.982Z,2.30
2023-04-11T15:23:26.439Z,2.75
2023-04-11T15:25:54.471Z,3.28
2023-04-11T15:28:23.171Z,2.75
2023-04-11T15:30:52.100Z,3.30
2023-04-11T15:33:21.030Z,3.40
2023-04-11T15:35:48.152Z,3.65
2023-04-11T15:38:18.041Z,3.58
2023-04-11T15:40:44.930Z,3.15
2023-04-11T15:43:12.052Z,4.00
2023-04-11T15:45:39.865Z,3.67
2023-04-11T15:48:07.019Z,4.05
2023-04-11T15:50:33.869Z,3.38
2023-04-11T15:53:01.071Z,3.08
2023-04-11T15:55:28.655Z,3.28
2023-04-11T15:57:56.597Z,3.28
2023-04-11T16:00:23.710Z,3.45
2023-04-11T16:02:51.360Z,3.00
2023-04-11T16:05:20.925Z,3.00
2023-04-11T16:07:48.665Z,2.50
2023-04-11T16:10:15.846Z,2.78
2023-04-11T16:12:42.956Z,2.85
2023-04-11T16:15:10.151Z,3.25
2023-04-11T16:17:37.289Z,2.58
2023-04-11T16:20:08.838Z,2.75
2023-04-11T16:22:37.595Z,2.33
2023-04-11T16:25:05.785Z,2.35
2023-04-11T16:27:33.175Z,2.35
2023-04-11T16:30:01.439Z,2.35
2023-04-11T16:32:31.563Z,2.45
2023-04-11T16:34:59.781Z,2.25
2023-04-11T16:37:27.333Z,2.30
2023-04-11T16:39:54.276Z,2.75
2023-04-11T16:42:22.737Z,2.90
2023-04-11T16:44:49.550Z,2.42
2023-04-11T16:47:16.676Z,2.35
2023-04-11T16:49:45.078Z,2.20
2023-04-11T16:52:13.639Z,2.88
2023-04-11T16:54:42.386Z,2.92
2023-04-11T16:57:12.337Z,2.90
2023-04-11T16:59:39.257Z,3.42
2023-04-11T17:02:06.999Z,3.38
2023-04-11T17:04:34.043Z,3.88
2023-04-11T17:07:01.249Z,3.67
2023-04-11T17:09:28.172Z,3.63
2023-04-11T17:11:55.291Z,3.05
2023-04-11T17:14:22.149Z,3.28
2023-04-11T17:16:49.346Z,4.15
2023-04-11T17:19:16.216Z,3.60
2023-04-11T17:21:44.859Z,3.70
2023-04-11T17:24:11.694Z,3.40
2023-04-11T17:26:38.971Z,3.00
2023-04-11T17:29:06.641Z,3.08
2023-04-11T17:31:34.078Z,3.30
2023-04-11T17:34:01.109Z,3.13
2023-04-11T17:36:28.879Z,3.53
2023-04-11T17:38:55.909Z,3.05
2023-04-11T17:41:23.066Z,3.60
2023-04-11T17:43:50.104Z,3.78
2023-04-11T17:46:17.291Z,3.78
2023-04-11T17:48:44.212Z,3.70
2023-04-11T17:51:11.344Z,3.75
2023-04-11T17:53:38.230Z,3.90
2023-04-11T17:56:05.996Z,3.67
2023-04-11T17:58:33.644Z,3.85
2023-04-11T18:01:00.858Z,4.10
2023-04-11T18:03:28.328Z,4.05
2023-04-11T18:05:56.635Z,3.20
2023-04-11T18:08:42.393Z,3.83
2023-04-11T18:11:13.232Z,3.50
2023-04-11T18:13:42.813Z,4.35
2023-04-11T18:16:10.305Z,4.05
2023-04-11T18:18:39.822Z,3.88
2023-04-11T18:21:08.042Z,4.68
2023-04-11T18:23:35.671Z,4.20
2023-04-11T18:26:02.750Z,4.55
2023-04-11T18:28:30.415Z,5.45
2023-04-11T18:30:57.549Z,5.38
2023-04-11T18:33:24.551Z,5.35
2023-04-11T18:35:51.803Z,6.43
2023-04-11T18:38:18.785Z,5.80
2023-04-11T18:40:46.237Z,6.70
2023-04-11T18:43:13.455Z,7.07
2023-04-11T18:45:42.288Z,7.43
2023-04-11T18:48:09.699Z,6.78
2023-04-11T18:50:42.865Z,7.53
2023-04-11T18:53:13.572Z,7.13
2023-04-11T18:55:41.475Z,7.63
2023-04-11T18:58:10.058Z,8.10
2023-04-11T19:00:39.140Z,8.23
2023-04-11T19:03:06.950Z,7.22
2023-04-11T19:05:34.688Z,7.25
2023-04-11T19:08:01.700Z,7.15
2023-04-11T19:10:28.849Z,7.22
2023-04-11T19:12:55.721Z,7.25
2023-04-11T19:15:22.916Z,7.80
2023-04-11T19:17:49.987Z,6.95
2023-04-11T19:20:17.769Z,7.30
2023-04-11T19:22:46.283Z,7.35
2023-04-11T19:25:14.708Z,6.38
2023-04-11T19:27:42.490Z,8.73
2023-04-11T19:30:13.501Z,8.05
2023-04-11T19:32:43.436Z,6.88
2023-04-11T19:35:12.000Z,5.25
2023-04-11T19:37:39.321Z,6.97
2023-04-11T19:40:07.616Z,7.47
2023-04-11T19:42:37.177Z,6.43
2023-04-11T19:45:05.180Z,6.60
2023-04-11T19:47:32.865Z,6.97
2023-04-11T19:50:00.877Z,6.45
2023-04-11T19:52:28.711Z,5.90
2023-04-11T19:54:56.985Z,6.25
2023-04-11T19:57:27.249Z,6.65
2023-04-11T19:59:54.406Z,5.63
2023-04-11T20:02:21.485Z,6.07
2023-04-11T20:04:49.576Z,5.40
2023-04-11T20:07:16.742Z,5.80
2023-04-11T20:09:43.863Z,6.75
2023-04-11T20:12:10.836Z,5.88
2023-04-11T20:14:38.374Z,5.32
2023-04-11T20:17:06.292Z,6.18
2023-04-11T20:19:37.643Z,5.43
2023-04-11T20:22:04.983Z,5.05
2023-04-11T20:24:32.149Z,5.78
2023-04-11T20:26:58.903Z,4.80
2023-04-11T20:29:30.902Z,5.68
2023-04-11T20:31:58.435Z,5.85
2023-04-11T20:34:25.533Z,6.03
2023-04-11T20:36:52.506Z,5.63
2023-04-11T20:39:19.596Z,4.53
2023-04-11T20:41:46.433Z,5.35
2023-04-11T20:44:17.056Z,5.07
2023-04-11T20:46:44.506Z,4.60
2023-04-11T20:49:18.236Z,3.78
2023-04-11T20:51:48.327Z,4.40
2023-04-11T20:54:15.606Z,3.70
2023-04-11T20:56:42.912Z,2.90
2023-04-11T20:59:11.913Z,2.60
2023-04-11T21:01:39.013Z,2.25
2023-04-11T21:04:06.971Z,3.17
2023-04-11T21:06:33.852Z,2.70
2023-04-11T21:09:02.702Z,2.75
2023-04-11T21:11:29.594Z,3.20
2023-04-11T21:13:56.802Z,2.15
2023-04-11T21:16:23.902Z,1.88
2023-04-11T21:18:51.085Z,2.20
2023-04-11T21:21:17.911Z,2.63
2023-04-11T21:23:45.046Z,1.80
2023-04-11T21:26:11.935Z,1.50
2023-04-11T21:28:39.035Z,1.20
2023-04-11T21:31:06.223Z,1.77
2023-04-11T21:33:33.276Z,1.20
2023-04-11T21:36:00.169Z,1.30
2023-04-11T21:38:27.248Z,1.40
2023-04-11T21:40:54.023Z,1.42
2023-04-11T21:43:21.056Z,1.52
2023-04-11T21:45:47.809Z,1.27
2023-04-11T21:48:14.995Z,1.50
2023-04-11T21:50:41.871Z,1.63
2023-04-11T21:53:08.911Z,1.60
2023-04-11T21:55:35.704Z,1.15
2023-04-11T21:58:02.828Z,1.17
2023-04-11T22:00:29.614Z,1.20
2023-04-11T22:02:56.789Z,1.13
2023-04-11T22:05:23.992Z,1.52
2023-04-11T22:07:51.333Z,1.30
2023-04-11T22:10:23.591Z,1.98
2023-04-11T22:12:53.860Z,1.33
2023-04-11T22:15:20.891Z,1.30
2023-04-11T22:17:50.844Z,1.95
2023-04-11T22:20:18.458Z,1.35
2023-04-11T22:22:45.605Z,2.00
2023-04-11T22:25:12.419Z,1.27
2023-04-11T22:27:39.577Z,1.60
2023-04-11T22:30:07.612Z,1.30
2023-04-11T22:32:34.801Z,2.03
2023-04-11T22:35:01.798Z,1.67
2023-04-11T22:37:28.881Z,2.28
2023-04-11T22:39:55.786Z,1.58
2023-04-11T22:42:25.847Z,1.80
2023-04-11T22:44:52.652Z,1.67
2023-04-11T22:47:21.757Z,2.15
2023-04-11T22:49:48.648Z,2.38
2023-04-11T22:52:18.919Z,1.67
2023-04-11T22:54:46.904Z,1.98
2023-04-11T22:57:13.928Z,2.40
2023-04-11T22:59:40.812Z,2.17
2023-04-11T23:02:08.548Z,2.30
2023-04-11T23:04:35.695Z,2.00
2023-04-11T23:07:05.050Z,2.03
2023-04-11T23:09:32.220Z,2.90
2023-04-11T23:11:59.286Z,3.40
2023-04-11T23:14:31.060Z,2.00
2023-04-11T23:16:58.353Z,2.45
2023-04-11T23:19:25.399Z,2.28
2023-04-11T23:21:53.251Z,2.25
2023-04-11T23:24:20.580Z,1.60
2023-04-11T23:26:47.654Z,2.88
2023-04-11T23:29:14.832Z,2.17
2023-04-11T23:31:42.279Z,2.30
2023-04-11T23:34:10.014Z,2.10
2023-04-11T23:36:37.623Z,1.70
2023-04-11T23:39:05.362Z,2.40
2023-04-11T23:41:32.441Z,2.50
2023-04-11T23:43:59.555Z,2.35
2023-04-11T23:46:27.331Z,2.38
2023-04-11T23:48:54.161Z,2.47
2023-04-11T23:51:21.530Z,2.80
2023-04-11T23:53:48.536Z,2.17
2023-04-11T23:56:15.980Z,1.90
2023-04-11T23:58:42.829Z,2.28
